createdAt,value
2018-12-31T00:01:43.196Z,7.60
2018-12-31T00:04:16.068Z,7.60
2018-12-31T00:06:46.602Z,7.60
2018-12-31T00:09:19.420Z,7.50
2018-12-31T00:11:49.892Z,7.60
2018-12-31T00:14:20.804Z,7.60
2018-12-31T00:16:51.492Z,7.60
2018-12-31T00:19:22.776Z,7.60
2018-12-31T00:21:54.014Z,7.60
2018-12-31T00:24:24.741Z,7.50
2018-12-31T00:26:54.937Z,7.50
2018-12-31T00:29:27.901Z,7.60
2018-12-31T00:31:58.047Z,7.50
2018-12-31T00:34:28.979Z,7.50
2018-12-31T00:37:00.024Z,7.50
2018-12-31T00:39:29.727Z,7.50
2018-12-31T00:41:59.377Z,7.60
2018-12-31T00:44:29.060Z,7.70
2018-12-31T00:46:58.779Z,7.80
2018-12-31T00:49:28.443Z,7.80
2018-12-31T00:51:58.061Z,8.00
2018-12-31T00:54:27.774Z,8.10
2018-12-31T00:56:57.730Z,8.10
2018-12-31T00:59:27.392Z,8.10
2018-12-31T01:01:57.157Z,8.00
2018-12-31T01:04:26.851Z,8.00
2018-12-31T01:06:56.510Z,8.20
2018-12-31T01:09:26.783Z,8.20
2018-12-31T01:11:56.499Z,8.30
2018-12-31T01:14:26.175Z,8.30
2018-12-31T01:16:55.907Z,8.30
2018-12-31T01:19:28.659Z,8.20
2018-12-31T01:21:59.679Z,8.10
2018-12-31T01:24:29.351Z,8.20
2018-12-31T01:26:58.996Z,8.20
2018-12-31T01:29:28.655Z,8.10
2018-12-31T01:31:58.333Z,7.90
2018-12-31T01:34:27.974Z,7.90
2018-12-31T01:36:57.596Z,7.80
2018-12-31T01:39:27.257Z,7.90
2018-12-31T01:41:56.941Z,8.00
2018-12-31T01:44:26.627Z,8.00
2018-12-31T01:46:56.273Z,8.00
2018-12-31T01:49:25.959Z,7.80
2018-12-31T01:51:55.599Z,7.90
2018-12-31T01:54:25.258Z,7.80
2018-12-31T01:56:55.050Z,7.80
2018-12-31T01:59:24.725Z,7.80
2018-12-31T02:01:54.426Z,7.80
2018-12-31T02:04:24.187Z,7.80
2018-12-31T02:06:53.886Z,7.80
2018-12-31T02:09:24.188Z,7.70
2018-12-31T02:11:53.883Z,7.80
2018-12-31T02:14:23.637Z,7.80
2018-12-31T02:16:53.370Z,7.90
2018-12-31T02:19:23.023Z,8.00
2018-12-31T02:21:52.676Z,8.00
2018-12-31T02:24:22.371Z,8.10
2018-12-31T02:26:52.027Z,8.00
2018-12-31T02:29:21.689Z,7.80
2018-12-31T02:31:51.324Z,7.80
2018-12-31T02:34:21.253Z,7.80
2018-12-31T02:36:50.933Z,7.90
2018-12-31T02:39:20.610Z,7.90
2018-12-31T02:41:50.279Z,8.00
2018-12-31T02:44:19.966Z,8.00
2018-12-31T02:46:49.596Z,8.10
2018-12-31T02:49:19.285Z,8.10
2018-12-31T02:51:48.928Z,8.20
2018-12-31T02:54:18.711Z,8.20
2018-12-31T02:56:48.387Z,8.20
2018-12-31T02:59:18.760Z,8.10
2018-12-31T03:01:48.513Z,8.10
2018-12-31T03:04:18.157Z,7.80
2018-12-31T03:06:48.770Z,7.90
2018-12-31T03:09:19.083Z,7.90
2018-12-31T03:11:48.807Z,7.90
2018-12-31T03:14:18.456Z,7.80
2018-12-31T03:16:48.125Z,7.80
2018-12-31T03:19:17.807Z,7.70
2018-12-31T03:21:47.522Z,7.70
2018-12-31T03:24:17.210Z,7.90
2018-12-31T03:26:47.018Z,7.80
2018-12-31T03:29:16.769Z,8.00
2018-12-31T03:31:47.006Z,8.00
2018-12-31T03:34:16.678Z,8.20
2018-12-31T03:36:46.311Z,8.20
2018-12-31T03:39:15.952Z,8.20
2018-12-31T03:41:45.700Z,8.20
2018-12-31T03:44:15.886Z,8.10
2018-12-31T03:46:45.598Z,8.10
2018-12-31T03:49:15.261Z,8.20
2018-12-31T03:51:44.911Z,8.30
2018-12-31T03:54:14.592Z,8.30
2018-12-31T03:56:44.298Z,8.40
2018-12-31T03:59:13.982Z,8.30
2018-12-31T04:01:43.648Z,8.10
2018-12-31T04:04:13.378Z,8.10
2018-12-31T04:06:43.038Z,8.20
2018-12-31T04:09:12.737Z,8.10
2018-12-31T04:11:42.387Z,8.10
2018-12-31T04:14:12.041Z,8.10
2018-12-31T04:16:41.723Z,8.00
2018-12-31T04:19:11.414Z,8.00
2018-12-31T04:21:41.118Z,8.20
2018-12-31T04:24:10.792Z,8.20
2018-12-31T04:26:40.556Z,8.30
2018-12-31T04:29:10.198Z,8.30
2018-12-31T04:31:40.879Z,8.40
2018-12-31T04:34:10.528Z,8.40
2018-12-31T04:36:40.177Z,8.50
2018-12-31T04:39:09.836Z,8.40
2018-12-31T04:41:39.510Z,8.40
2018-12-31T04:44:09.146Z,8.40
2018-12-31T04:46:38.907Z,8.30
2018-12-31T04:49:08.579Z,8.40
2018-12-31T04:51:38.231Z,8.40
2018-12-31T04:54:07.882Z,8.30
2018-12-31T04:56:37.538Z,8.30
2018-12-31T04:59:07.191Z,8.20
2018-12-31T05:01:36.908Z,8.20
2018-12-31T05:04:06.611Z,8.10
2018-12-31T05:06:36.291Z,8.20
2018-12-31T05:09:07.034Z,8.20
2018-12-31T05:11:36.727Z,8.20
2018-12-31T05:14:06.394Z,8.20
2018-12-31T05:16:36.090Z,8.30
2018-12-31T05:19:06.009Z,8.20
2018-12-31T05:21:35.844Z,8.40
2018-12-31T05:24:05.473Z,8.20
2018-12-31T05:26:35.192Z,8.20
2018-12-31T05:29:04.923Z,8.30
2018-12-31T05:31:34.574Z,8.20
2018-12-31T05:34:04.215Z,8.20
2018-12-31T05:36:33.895Z,8.20
2018-12-31T05:39:04.770Z,8.20
2018-12-31T05:41:34.451Z,8.30
2018-12-31T05:44:04.075Z,8.30
2018-12-31T05:46:33.778Z,8.30
2018-12-31T05:49:03.419Z,8.30
2018-12-31T05:51:33.154Z,8.10
2018-12-31T05:54:02.786Z,8.20
2018-12-31T05:56:32.467Z,8.30
2018-12-31T05:59:02.282Z,8.30
2018-12-31T06:01:31.970Z,8.40
2018-12-31T06:04:01.606Z,8.60
2018-12-31T06:06:31.364Z,8.70
2018-12-31T06:09:00.992Z,8.80
2018-12-31T06:11:30.631Z,8.90
2018-12-31T06:14:00.285Z,8.80
2018-12-31T06:16:29.931Z,8.70
2018-12-31T06:18:59.599Z,8.60
2018-12-31T06:21:29.254Z,8.40
2018-12-31T06:23:58.890Z,8.40
2018-12-31T06:26:28.562Z,8.40
2018-12-31T06:28:58.589Z,8.50
2018-12-31T06:31:28.303Z,8.40
2018-12-31T06:33:58.146Z,8.40
2018-12-31T06:36:27.774Z,8.40
2018-12-31T06:38:59.937Z,8.40
2018-12-31T06:41:29.615Z,8.40
2018-12-31T06:43:59.231Z,8.40
2018-12-31T06:46:28.935Z,8.40
2018-12-31T06:48:58.610Z,8.40
2018-12-31T06:51:28.763Z,8.50
2018-12-31T06:53:58.418Z,8.50
2018-12-31T06:56:28.120Z,8.60
2018-12-31T06:58:57.758Z,8.80
2018-12-31T07:01:27.418Z,8.90
2018-12-31T07:03:57.176Z,9.00
2018-12-31T07:06:29.834Z,8.90
2018-12-31T07:08:59.481Z,8.90
2018-12-31T07:11:29.176Z,8.90
2018-12-31T07:13:58.842Z,8.80
2018-12-31T07:16:29.133Z,8.70
2018-12-31T07:18:58.852Z,8.90
2018-12-31T07:21:29.745Z,8.90
2018-12-31T07:23:59.543Z,9.00
2018-12-31T07:26:29.266Z,8.90
2018-12-31T07:28:59.021Z,8.70
2018-12-31T07:31:28.657Z,8.80
2018-12-31T07:33:58.332Z,8.80
2018-12-31T07:36:27.977Z,9.10
2018-12-31T07:38:57.662Z,8.90
2018-12-31T07:41:27.771Z,8.70
2018-12-31T07:44:00.138Z,8.60
2018-12-31T07:46:28.844Z,8.60
2018-12-31T07:48:58.502Z,8.70
2018-12-31T07:51:28.174Z,8.70
2018-12-31T07:53:57.834Z,8.80
2018-12-31T07:56:27.487Z,8.80
2018-12-31T07:58:57.147Z,8.90
2018-12-31T08:01:26.883Z,9.00
2018-12-31T08:03:56.568Z,8.80
2018-12-31T08:06:26.316Z,9.00
2018-12-31T08:08:56.163Z,9.10
2018-12-31T08:11:25.923Z,9.00
2018-12-31T08:13:55.578Z,9.10
2018-12-31T08:16:29.355Z,9.00
2018-12-31T08:19:00.091Z,9.00
2018-12-31T08:21:29.747Z,8.90
2018-12-31T08:23:59.401Z,8.70
2018-12-31T08:26:29.034Z,8.50
2018-12-31T08:28:58.799Z,8.60
2018-12-31T08:31:28.447Z,8.60
2018-12-31T08:33:58.137Z,8.60
2018-12-31T08:36:30.519Z,8.70
2018-12-31T08:39:00.231Z,8.60
2018-12-31T08:41:29.854Z,8.60
2018-12-31T08:43:59.523Z,8.50
2018-12-31T08:46:29.188Z,8.60
2018-12-31T08:48:58.937Z,8.50
2018-12-31T08:51:28.609Z,8.50
2018-12-31T08:53:58.275Z,8.40
2018-12-31T08:56:27.991Z,8.30
2018-12-31T08:59:03.113Z,8.40
2018-12-31T09:01:32.754Z,8.30
2018-12-31T09:04:02.440Z,8.30
2018-12-31T09:06:32.122Z,8.40
2018-12-31T09:09:01.883Z,8.30
2018-12-31T09:11:31.611Z,8.40
2018-12-31T09:14:01.259Z,8.40
2018-12-31T09:16:31.360Z,8.40
2018-12-31T09:19:02.231Z,8.50
2018-12-31T09:21:31.907Z,8.70
2018-12-31T09:24:01.801Z,8.90
2018-12-31T09:26:31.665Z,9.00
2018-12-31T09:29:04.551Z,9.00
2018-12-31T09:31:34.168Z,8.90
2018-12-31T09:34:04.930Z,8.90
2018-12-31T09:36:34.615Z,8.90
2018-12-31T09:39:06.171Z,9.00
2018-12-31T09:41:36.422Z,9.00
2018-12-31T09:44:06.157Z,9.00
2018-12-31T09:46:35.897Z,9.00
2018-12-31T09:49:05.555Z,8.80
2018-12-31T09:51:35.268Z,8.90
2018-12-31T09:54:04.923Z,9.20
2018-12-31T09:56:34.630Z,9.30
2018-12-31T09:59:04.344Z,9.40
2018-12-31T10:01:33.968Z,9.40
2018-12-31T10:04:03.888Z,9.40
2018-12-31T10:06:38.577Z,9.50
2018-12-31T10:09:08.347Z,9.40
2018-12-31T10:11:38.178Z,9.50
2018-12-31T10:14:08.016Z,9.50
2018-12-31T10:16:37.758Z,9.60
2018-12-31T10:19:07.489Z,9.50
2018-12-31T10:21:40.876Z,9.60
2018-12-31T10:24:10.069Z,9.70
2018-12-31T10:26:41.175Z,9.70
2018-12-31T10:29:10.955Z,9.70
2018-12-31T10:31:40.705Z,9.60
2018-12-31T10:34:10.559Z,9.50
2018-12-31T10:36:40.578Z,9.20
2018-12-31T10:39:10.355Z,9.30
2018-12-31T10:41:40.095Z,9.20
2018-12-31T10:44:09.744Z,9.00
2018-12-31T10:46:39.405Z,9.20
2018-12-31T10:49:09.240Z,9.50
2018-12-31T10:51:39.379Z,9.60
2018-12-31T10:54:09.194Z,9.50
2018-12-31T10:56:39.167Z,9.50
2018-12-31T10:59:08.815Z,9.60
2018-12-31T11:01:38.520Z,9.60
2018-12-31T11:04:08.381Z,9.40
2018-12-31T11:06:38.000Z,9.60
2018-12-31T11:09:08.055Z,9.60
2018-12-31T11:11:37.778Z,9.50
2018-12-31T11:14:07.519Z,9.70
2018-12-31T11:16:37.185Z,9.30
2018-12-31T11:19:07.365Z,9.50
2018-12-31T11:21:37.222Z,9.60
2018-12-31T11:24:06.899Z,9.70
2018-12-31T11:26:36.562Z,9.90
2018-12-31T11:29:06.261Z,10.00
2018-12-31T11:31:35.933Z,9.90
2018-12-31T11:34:05.603Z,10.00
2018-12-31T11:36:35.256Z,10.10
2018-12-31T11:39:06.851Z,9.90
2018-12-31T11:41:36.490Z,9.80
2018-12-31T11:44:06.175Z,9.90
2018-12-31T11:46:35.838Z,9.80
2018-12-31T11:49:05.471Z,9.70
2018-12-31T11:51:35.191Z,9.60
2018-12-31T11:54:04.851Z,9.70
2018-12-31T11:56:34.519Z,9.70
2018-12-31T11:59:04.162Z,10.00
2018-12-31T12:01:33.922Z,10.10
2018-12-31T12:04:03.682Z,10.30
2018-12-31T12:06:33.322Z,10.60
2018-12-31T12:09:03.769Z,10.70
2018-12-31T12:11:33.455Z,10.50
2018-12-31T12:14:03.130Z,10.60
2018-12-31T12:16:32.865Z,10.40
2018-12-31T12:19:02.559Z,10.30
2018-12-31T12:21:32.247Z,10.30
2018-12-31T12:24:04.209Z,10.40
2018-12-31T12:26:33.874Z,10.60
2018-12-31T12:29:04.171Z,10.60
2018-12-31T12:31:34.189Z,10.50
2018-12-31T12:34:03.871Z,10.60
2018-12-31T12:36:33.564Z,10.50
2018-12-31T12:39:04.429Z,10.40
2018-12-31T12:41:34.099Z,10.40
2018-12-31T12:44:03.754Z,10.20
2018-12-31T12:46:33.506Z,10.30
2018-12-31T12:49:03.169Z,10.30
2018-12-31T12:51:32.903Z,10.20
2018-12-31T12:54:02.591Z,10.40
2018-12-31T12:56:32.298Z,10.40
2018-12-31T12:59:02.196Z,10.30
2018-12-31T13:01:31.918Z,10.40
2018-12-31T13:04:01.650Z,10.20
2018-12-31T13:06:31.966Z,10.20
2018-12-31T13:09:01.626Z,10.60
2018-12-31T13:11:31.390Z,10.60
2018-12-31T13:14:01.155Z,10.60
2018-12-31T13:16:30.843Z,10.80
2018-12-31T13:19:00.606Z,10.50
2018-12-31T15:33:17.711Z,10.10
2018-12-31T15:35:47.435Z,10.00
2018-12-31T15:38:17.094Z,10.00
2018-12-31T15:40:46.750Z,10.10
2018-12-31T15:43:16.417Z,10.10
2018-12-31T15:45:46.234Z,9.90
2018-12-31T15:48:15.900Z,9.80
2018-12-31T15:50:45.565Z,9.70
2018-12-31T15:53:15.292Z,9.60
2018-12-31T15:55:45.299Z,9.90
2018-12-31T15:58:15.150Z,9.70
2018-12-31T16:00:44.840Z,9.70
2018-12-31T16:03:15.974Z,9.70
2018-12-31T16:05:45.645Z,9.80
2018-12-31T16:08:15.603Z,10.10
2018-12-31T16:10:45.310Z,9.80
2018-12-31T16:13:14.974Z,9.70
2018-12-31T16:15:46.217Z,9.70
2018-12-31T16:18:16.075Z,9.90
2018-12-31T16:20:45.711Z,9.90
2018-12-31T16:23:15.531Z,9.90
2018-12-31T16:25:45.277Z,10.00
2018-12-31T16:28:15.039Z,10.10
2018-12-31T16:30:44.795Z,10.10
2018-12-31T16:33:14.701Z,10.10
2018-12-31T16:35:44.447Z,10.00
2018-12-31T16:38:14.174Z,10.10
2018-12-31T16:40:43.914Z,10.00
2018-12-31T16:43:13.984Z,9.90
2018-12-31T16:45:43.621Z,10.00
2018-12-31T16:48:13.331Z,10.10
2018-12-31T16:50:43.040Z,10.30
2018-12-31T16:53:12.711Z,10.00
2018-12-31T16:55:42.665Z,9.80
2018-12-31T16:58:12.314Z,9.70
2018-12-31T17:00:41.991Z,9.70
2018-12-31T17:03:14.598Z,9.80
2018-12-31T17:05:44.681Z,9.60
2018-12-31T17:08:14.411Z,9.50
2018-12-31T17:10:44.374Z,9.70
2018-12-31T17:13:16.546Z,9.80
2018-12-31T17:15:46.234Z,9.90
2018-12-31T17:18:15.987Z,9.90
2018-12-31T17:20:45.949Z,10.00
2018-12-31T17:23:15.716Z,10.00
2018-12-31T17:25:45.460Z,10.00
2018-12-31T17:28:15.177Z,10.00
2018-12-31T17:30:45.220Z,10.00
2018-12-31T17:33:14.867Z,9.90
2018-12-31T17:35:44.590Z,9.90
2018-12-31T17:38:14.369Z,10.00
2018-12-31T17:40:44.276Z,10.00
2018-12-31T17:43:14.383Z,9.80
2018-12-31T17:45:44.070Z,9.90
2018-12-31T17:48:16.748Z,9.70
2018-12-31T17:50:46.405Z,9.70
2018-12-31T17:53:16.054Z,9.80
2018-12-31T17:55:46.927Z,9.80
2018-12-31T17:58:16.592Z,9.90
2018-12-31T18:00:49.904Z,9.90
2018-12-31T18:03:18.838Z,10.00
2018-12-31T18:05:48.982Z,9.80
2018-12-31T18:08:18.657Z,9.60
2018-12-31T18:10:48.361Z,9.60
2018-12-31T18:13:18.023Z,9.50
2018-12-31T18:15:47.686Z,9.40
2018-12-31T18:18:17.695Z,9.40
2018-12-31T18:20:47.355Z,9.50
2018-12-31T18:23:17.003Z,9.50
2018-12-31T18:25:46.699Z,9.50
2018-12-31T18:28:16.492Z,9.50
2018-12-31T18:30:46.141Z,9.50
2018-12-31T18:33:15.919Z,9.50
2018-12-31T18:35:45.680Z,9.60
2018-12-31T18:38:15.315Z,9.60
2018-12-31T18:40:45.246Z,9.60
2018-12-31T18:43:15.101Z,9.70
2018-12-31T18:45:44.796Z,9.60
2018-12-31T18:48:14.571Z,9.80
2018-12-31T18:50:44.290Z,9.80
2018-12-31T18:53:13.981Z,9.90
2018-12-31T18:55:43.701Z,9.90
2018-12-31T18:58:13.727Z,9.90
2018-12-31T19:00:43.447Z,9.60
2018-12-31T19:03:13.091Z,9.40
2018-12-31T19:05:43.238Z,9.50
2018-12-31T19:08:12.915Z,9.60
2018-12-31T19:10:42.579Z,9.70
2018-12-31T19:13:12.230Z,9.80
2018-12-31T19:15:41.891Z,9.80
2018-12-31T19:18:12.084Z,9.70
2018-12-31T19:20:41.963Z,9.80
2018-12-31T19:23:11.996Z,9.70
2018-12-31T19:25:41.877Z,9.70
2018-12-31T19:28:11.732Z,9.60
2018-12-31T19:30:41.802Z,9.50
2018-12-31T19:33:13.110Z,9.50
2018-12-31T19:35:43.006Z,9.40
2018-12-31T19:38:12.770Z,9.30
2018-12-31T19:40:42.581Z,9.30
2018-12-31T19:43:12.399Z,9.50
2018-12-31T19:45:42.385Z,9.40
2018-12-31T19:48:12.074Z,9.50
2018-12-31T19:50:41.748Z,9.30
2018-12-31T19:53:11.437Z,9.30
2018-12-31T19:55:41.148Z,9.30
2018-12-31T19:58:10.809Z,9.30
2018-12-31T20:00:40.552Z,9.20
2018-12-31T20:03:10.287Z,9.20
2018-12-31T20:05:39.950Z,9.20
2018-12-31T20:08:09.591Z,9.10
2018-12-31T20:10:39.251Z,9.20
2018-12-31T20:13:08.992Z,9.30
2018-12-31T20:15:38.682Z,9.30
2018-12-31T20:18:08.365Z,9.20
2018-12-31T20:20:38.147Z,9.20
2018-12-31T20:23:07.785Z,9.20
2018-12-31T20:25:37.682Z,9.20
2018-12-31T20:28:07.385Z,9.20
2018-12-31T20:30:37.287Z,9.40
2018-12-31T20:33:06.954Z,9.50
2018-12-31T20:35:36.673Z,9.40
2018-12-31T20:38:06.378Z,9.30
2018-12-31T20:40:36.083Z,9.30
2018-12-31T20:43:05.830Z,9.30
2018-12-31T20:45:35.507Z,9.20
2018-12-31T20:48:05.258Z,9.20
2018-12-31T20:50:35.097Z,9.20
2018-12-31T20:53:04.786Z,9.20
2018-12-31T20:55:34.767Z,9.20
2018-12-31T20:58:04.693Z,9.40
2018-12-31T21:00:34.357Z,9.60
2018-12-31T21:03:04.034Z,9.60
2018-12-31T21:05:33.698Z,9.40
2018-12-31T21:08:03.478Z,9.40
2018-12-31T21:10:34.807Z,9.20
2018-12-31T21:13:04.594Z,9.40
2018-12-31T21:15:34.223Z,9.40
2018-12-31T21:18:04.079Z,9.40
2018-12-31T21:20:33.778Z,9.50
2018-12-31T21:23:03.461Z,9.50
2018-12-31T21:25:33.099Z,9.60
2018-12-31T21:28:02.801Z,9.70
2018-12-31T21:30:32.478Z,9.80
2018-12-31T21:33:02.225Z,9.70
2018-12-31T21:35:31.945Z,9.60
2018-12-31T21:38:01.613Z,9.60
2018-12-31T21:40:31.270Z,9.70
2018-12-31T21:43:01.138Z,9.50
2018-12-31T21:45:30.799Z,9.50
2018-12-31T21:48:00.492Z,9.60
2018-12-31T21:50:30.250Z,9.40
2018-12-31T21:52:59.901Z,9.60
2018-12-31T21:55:29.614Z,9.50
2018-12-31T21:57:59.306Z,9.50
2018-12-31T22:00:28.993Z,9.50
2018-12-31T22:02:58.688Z,9.30
2018-12-31T22:05:28.325Z,9.30
2018-12-31T22:07:58.086Z,9.40
2018-12-31T22:10:27.787Z,9.50
2018-12-31T22:12:57.608Z,9.60
2018-12-31T22:15:27.241Z,9.50
2018-12-31T22:17:57.034Z,9.50
2018-12-31T22:20:26.723Z,9.50
2018-12-31T22:22:56.450Z,9.50
2018-12-31T22:25:26.205Z,9.30
2018-12-31T22:27:55.888Z,9.30
2018-12-31T22:30:25.636Z,9.40
2018-12-31T22:32:55.347Z,9.40
2018-12-31T22:35:25.158Z,9.50
2018-12-31T22:37:54.978Z,9.50
2018-12-31T22:40:24.646Z,9.60
2018-12-31T22:42:54.396Z,9.40
2018-12-31T22:45:24.072Z,9.50
2018-12-31T22:47:53.761Z,9.40
2018-12-31T22:50:23.518Z,9.30
2018-12-31T22:52:53.307Z,9.40
2018-12-31T22:55:23.018Z,9.40
2018-12-31T22:57:52.794Z,9.60
2018-12-31T23:00:26.922Z,9.70
2018-12-31T23:02:56.750Z,9.70
2018-12-31T23:05:26.766Z,9.60
2018-12-31T23:07:56.582Z,9.60
2018-12-31T23:10:26.306Z,9.60
2018-12-31T23:12:56.075Z,9.60
2018-12-31T23:15:26.906Z,9.60
2018-12-31T23:17:56.671Z,9.50
2018-12-31T23:20:26.490Z,9.60
2018-12-31T23:22:56.169Z,9.50
2018-12-31T23:25:25.893Z,9.50
2018-12-31T23:27:55.614Z,9.50
2018-12-31T23:30:25.325Z,9.40
2018-12-31T23:32:55.213Z,9.40
2018-12-31T23:35:24.944Z,9.40
2018-12-31T23:37:54.679Z,9.40
2018-12-31T23:40:24.354Z,9.60
2018-12-31T23:42:54.070Z,9.60
2018-12-31T23:45:23.746Z,9.50
2018-12-31T23:47:53.898Z,9.60
2018-12-31T23:50:23.731Z,9.60
2018-12-31T23:52:53.521Z,9.70
2018-12-31T23:55:23.202Z,9.50
2018-12-31T23:57:52.980Z,9.60
